Time;durP1;ratioP1;P1;durP2;ratioP2;P2;SDS_P1;SDS_P2;PMS_P1;PMS_P2;Temp;Humidity;BMP_temperature;BMP_pressure;BME280_temperature;BME280_humidity;BME280_pressure;Samples;Min_cycle;Max_cycle;Signal;HPM_P1;HPM_P2
2022/08/03 00:01:06;;;;;;;4.93;2.27;;;17.90;99.90;;;;;;5089692;28;20216;-64
2022/08/03 00:03:32;;;;;;;3.40;2.30;;;17.90;99.90;;;;;;5089094;28;20173;-65
2022/08/03 00:05:58;;;;;;;4.10;2.00;;;17.90;99.90;;;;;;5063225;28;20268;-64
2022/08/03 00:08:23;;;;;;;4.90;2.27;;;17.90;99.90;;;;;;5088080;28;20494;-65
2022/08/03 00:10:49;;;;;;;5.70;2.33;;;17.90;99.90;;;;;;5090854;28;20215;-65
2022/08/03 00:13:15;;;;;;;4.00;2.77;;;17.90;99.90;;;;;;5090271;28;20219;-65
2022/08/03 00:15:42;;;;;;;4.07;2.10;;;17.90;99.90;;;;;;5093213;28;20184;-65
2022/08/03 00:18:08;;;;;;;5.23;2.50;;;17.80;99.90;;;;;;5094779;28;20204;-65
2022/08/03 00:20:34;;;;;;;4.47;2.50;;;17.80;99.90;;;;;;5094565;28;20453;-64
2022/08/03 00:23:00;;;;;;;3.50;2.03;;;17.80;99.90;;;;;;5093876;28;20425;-65
2022/08/03 00:25:26;;;;;;;4.70;2.67;;;17.80;99.90;;;;;;5094648;28;20410;-65
2022/08/03 00:27:52;;;;;;;7.90;2.97;;;17.80;99.90;;;;;;5094637;28;20181;-65
2022/08/03 00:30:17;;;;;;;5.17;2.80;;;17.70;99.90;;;;;;5094074;28;20219;-65
2022/08/03 00:32:43;;;;;;;4.57;2.30;;;17.70;99.90;;;;;;5093898;28;20205;-65
2022/08/03 00:35:09;;;;;;;4.27;2.70;;;17.60;99.90;;;;;;5094451;28;20275;-65
2022/08/03 00:37:34;;;;;;;6.17;3.30;;;17.70;99.90;;;;;;5094161;28;20233;-65
2022/08/03 00:40:00;;;;;;;6.27;3.23;;;17.60;99.90;;;;;;5094199;28;20241;-65
2022/08/03 00:42:26;;;;;;;3.33;2.37;;;17.60;99.90;;;;;;5093699;28;20172;-65
2022/08/03 00:44:51;;;;;;;5.03;2.60;;;17.50;99.90;;;;;;5094398;28;20700;-64
2022/08/03 00:47:17;;;;;;;12.53;2.97;;;17.60;99.90;;;;;;5093888;28;20177;-65
2022/08/03 00:49:43;;;;;;;5.33;2.67;;;17.50;99.90;;;;;;5094133;28;20652;-65
2022/08/03 00:52:09;;;;;;;3.70;2.33;;;17.50;99.90;;;;;;5093323;28;20200;-65
2022/08/03 00:54:39;;;;;;;4.43;2.77;;;17.50;99.90;;;;;;5094002;28;20198;-65
2022/08/03 00:57:05;;;;;;;5.17;3.10;;;17.40;99.90;;;;;;5084120;28;20422;-64
2022/08/03 00:59:31;;;;;;;5.40;3.07;;;17.40;99.90;;;;;;5094099;28;20854;-65
2022/08/03 01:01:57;;;;;;;5.03;3.17;;;17.40;99.90;;;;;;5092888;28;20422;-65
2022/08/03 01:04:23;;;;;;;4.13;2.13;;;17.40;99.90;;;;;;5093665;28;20415;-65
2022/08/03 01:06:51;;;;;;;3.83;2.50;;;17.30;99.90;;;;;;5093600;28;20172;-65
2022/08/03 01:09:42;;;;;;;3.50;2.20;;;17.30;99.90;;;;;;5093639;28;20181;-65
2022/08/03 01:12:20;;;;;;;6.20;2.53;;;17.30;99.90;;;;;;5061126;28;20423;-65
2022/08/03 01:15:24;;;;;;;8.40;2.27;;;17.30;99.90;;;;;;5093968;28;20884;-62
2022/08/03 01:18:04;;;;;;;4.93;2.60;;;17.30;99.90;;;;;;5093567;28;20781;-62
2022/08/03 01:20:35;;;;;;;5.23;2.70;;;17.30;99.90;;;;;;5093500;28;20462;-62
2022/08/03 01:23:22;;;;;;;6.07;2.57;;;17.20;99.90;;;;;;5092611;28;20961;-62
2022/08/03 01:26:06;;;;;;;4.90;1.90;;;17.20;99.90;;;;;;5092801;28;20954;-62
2022/08/03 01:28:57;;;;;;;3.03;1.80;;;17.20;99.90;;;;;;5093568;28;20445;-62
2022/08/03 01:31:38;;;;;;;4.97;2.40;;;17.10;99.90;;;;;;5092445;28;20491;-62
2022/08/03 01:34:08;;;;;;;5.03;1.97;;;17.10;99.90;;;;;;5093441;28;20506;-62
2022/08/03 01:36:42;;;;;;;10.50;2.73;;;17.10;99.90;;;;;;5093249;28;20441;-63
2022/08/03 01:39:08;;;;;;;7.90;2.03;;;17.10;99.90;;;;;;5093032;28;20935;-62
2022/08/03 01:41:48;;;;;;;5.10;3.00;;;17.10;99.90;;;;;;5092731;28;20414;-62
2022/08/03 01:44:14;;;;;;;4.83;3.20;;;17.10;99.90;;;;;;5093190;28;20418;-62
2022/08/03 01:46:41;;;;;;;4.43;2.23;;;17.10;99.90;;;;;;5092779;28;20410;-62
2022/08/03 01:49:10;;;;;;;4.73;2.60;;;17.10;99.90;;;;;;5093145;28;20490;-62
2022/08/03 01:51:41;;;;;;;3.67;2.20;;;17.10;99.90;;;;;;5092382;28;20456;-62
2022/08/03 01:54:10;;;;;;;4.50;2.40;;;17.00;99.90;;;;;;5079229;28;20465;-62
2022/08/03 01:56:37;;;;;;;5.40;2.60;;;17.00;99.90;;;;;;5092595;28;20450;-63
2022/08/03 01:59:05;;;;;;;4.70;2.47;;;17.00;99.90;;;;;;5085858;28;20952;-62
2022/08/03 02:01:33;;;;;;;4.67;2.30;;;17.00;99.90;;;;;;5085868;28;20505;-62
2022/08/03 02:03:59;;;;;;;4.77;2.40;;;17.00;99.90;;;;;;5090882;28;20561;-63
2022/08/03 02:06:28;;;;;;;5.20;3.17;;;16.90;99.90;;;;;;5079404;28;20415;-62
2022/08/03 02:08:54;;;;;;;4.47;2.67;;;17.00;99.90;;;;;;5092604;28;20429;-62
2022/08/03 02:11:20;;;;;;;5.37;2.87;;;16.90;99.90;;;;;;5091829;28;20432;-62
2022/08/03 02:13:47;;;;;;;8.73;2.50;;;16.90;99.90;;;;;;5092598;28;20860;-62
2022/08/03 02:16:13;;;;;;;5.30;2.80;;;16.90;99.90;;;;;;5091898;28;20219;-62
2022/08/03 02:18:41;;;;;;;3.50;2.10;;;16.90;99.90;;;;;;5092545;28;20802;-62
2022/08/03 02:21:09;;;;;;;6.10;2.30;;;17.00;99.90;;;;;;5091516;28;20545;-62
2022/08/03 02:23:36;;;;;;;3.13;1.90;;;17.00;99.90;;;;;;5092048;28;20446;-62
2022/08/03 02:26:05;;;;;;;3.83;2.27;;;16.90;99.90;;;;;;5092078;28;20410;-62
2022/08/03 02:28:37;;;;;;;5.00;2.90;;;16.90;99.90;;;;;;5092219;28;20438;-62
2022/08/03 02:31:07;;;;;;;4.20;2.37;;;16.90;99.90;;;;;;5091280;28;20418;-63
2022/08/03 02:33:40;;;;;;;3.63;2.27;;;16.90;99.90;;;;;;5092164;28;20919;-62
2022/08/03 02:36:07;;;;;;;4.43;2.60;;;16.80;99.90;;;;;;5091881;28;20450;-62
2022/08/03 02:38:35;;;;;;;5.90;2.80;;;16.80;99.90;;;;;;5091719;28;20436;-62
2022/08/03 02:41:06;;;;;;;3.43;2.07;;;16.70;99.90;;;;;;5091373;28;20929;-62
2022/08/03 02:43:33;;;;;;;4.90;2.70;;;16.70;99.90;;;;;;5091957;28;20414;-62
2022/08/03 02:45:59;;;;;;;9.17;2.90;;;16.70;99.90;;;;;;5091603;28;20421;-62
2022/08/03 02:48:28;;;;;;;4.50;2.50;;;16.70;99.90;;;;;;5091879;28;20411;-62
2022/08/03 02:50:57;;;;;;;5.37;2.67;;;16.60;99.90;;;;;;5091372;28;20184;-62
2022/08/03 02:53:23;;;;;;;8.73;2.83;;;16.60;99.90;;;;;;5091283;28;20456;-63
2022/08/03 02:55:50;;;;;;;5.40;2.50;;;16.60;99.90;;;;;;5091642;28;20434;-62
2022/08/03 02:58:20;;;;;;;4.27;2.60;;;16.50;99.90;;;;;;5091640;28;20418;-62
2022/08/03 03:00:47;;;;;;;5.07;2.80;;;16.50;99.90;;;;;;5073097;28;20471;-62
2022/08/03 03:03:14;;;;;;;3.70;2.40;;;16.50;99.90;;;;;;5091210;28;20464;-62
2022/08/03 03:05:41;;;;;;;4.80;2.90;;;16.50;99.90;;;;;;5073664;28;20488;-62
2022/08/03 03:08:08;;;;;;;5.07;2.83;;;16.50;99.90;;;;;;5091543;28;20423;-62
2022/08/03 03:10:34;;;;;;;4.73;2.53;;;16.50;99.90;;;;;;5091373;28;20421;-62
2022/08/03 03:13:01;;;;;;;4.60;2.60;;;16.50;99.90;;;;;;5091377;28;20430;-62
2022/08/03 03:15:29;;;;;;;6.10;3.13;;;16.50;99.90;;;;;;5091110;28;20901;-64
2022/08/03 03:17:56;;;;;;;8.00;2.30;;;16.40;99.90;;;;;;5091388;28;20913;-63
2022/08/03 03:20:24;;;;;;;3.50;2.40;;;16.40;99.90;;;;;;5091478;28;20466;-63
2022/08/03 03:22:50;;;;;;;4.70;2.23;;;16.40;99.90;;;;;;5089641;28;20449;-63
2022/08/03 03:25:16;;;;;;;6.70;3.10;;;16.40;99.90;;;;;;5090993;28;20418;-63
2022/08/03 03:27:42;;;;;;;4.37;2.80;;;16.40;99.90;;;;;;5091303;28;20415;-63
2022/08/03 03:30:08;;;;;;;3.50;1.83;;;16.40;99.90;;;;;;5091487;28;20414;-63
2022/08/03 03:32:35;;;;;;;4.07;2.57;;;16.30;99.90;;;;;;5090195;28;20180;-64
2022/08/03 03:35:01;;;;;;;8.43;2.40;;;16.30;99.90;;;;;;5091124;28;20410;-63
2022/08/03 03:37:27;;;;;;;8.67;2.73;;;16.30;99.90;;;;;;5090997;28;20426;-63
2022/08/03 03:39:56;;;;;;;4.10;1.97;;;16.30;99.90;;;;;;5091049;28;20462;-63
2022/08/03 03:42:22;;;;;;;3.70;2.23;;;16.30;99.90;;;;;;5090514;28;20181;-63
2022/08/03 03:44:47;;;;;;;4.00;2.63;;;16.20;99.90;;;;;;5091292;28;20801;-64
2022/08/03 03:47:13;;;;;;;6.27;2.33;;;16.20;99.90;;;;;;5090652;28;20839;-63
2022/08/03 03:49:39;;;;;;;4.93;2.40;;;16.30;99.90;;;;;;5092278;28;20839;-63
2022/08/03 03:52:05;;;;;;;5.67;2.53;;;16.30;99.90;;;;;;5094592;28;20271;-63
2022/08/03 03:54:44;;;;;;;4.40;2.50;;;16.20;99.90;;;;;;5095075;28;20513;-63
2022/08/03 03:57:10;;;;;;;6.20;3.20;;;16.20;99.90;;;;;;5090457;28;20426;-63
2022/08/03 03:59:40;;;;;;;5.27;2.63;;;16.20;99.90;;;;;;5095140;28;20462;-63
2022/08/03 04:02:07;;;;;;;6.27;2.37;;;16.20;99.90;;;;;;5094095;28;20414;-63
2022/08/03 04:12:56;;;;;;;7.97;2.53;;;16.20;99.90;;;;;;5094647;28;20413;-63
2022/08/03 04:15:24;;;;;;;5.17;3.13;;;16.20;99.90;;;;;;5094511;28;20825;-64
2022/08/03 04:17:52;;;;;;;4.00;2.50;;;16.20;99.90;;;;;;5094847;28;20418;-63
2022/08/03 04:20:20;;;;;;;5.27;2.33;;;16.10;99.90;;;;;;5094747;28;20490;-63
2022/08/03 04:22:48;;;;;;;4.63;2.60;;;16.20;99.90;;;;;;5093242;28;20406;-63
2022/08/03 04:25:18;;;;;;;7.60;2.40;;;16.10;99.90;;;;;;5094443;28;20517;-63
2022/08/03 04:27:46;;;;;;;5.00;2.30;;;16.20;99.90;;;;;;5094761;28;20433;-63
2022/08/03 04:30:13;;;;;;;3.40;2.07;;;16.20;99.90;;;;;;5094462;28;20721;-63
2022/08/03 04:32:40;;;;;;;4.47;2.50;;;16.20;99.90;;;;;;5094115;28;20843;-63
2022/08/03 04:35:07;;;;;;;3.80;2.30;;;16.30;99.90;;;;;;5093592;28;20829;-64
2022/08/03 04:37:32;;;;;;;5.20;2.80;;;16.20;99.90;;;;;;5093615;28;20785;-63
2022/08/03 04:40:01;;;;;;;4.80;2.80;;;16.20;99.90;;;;;;5094130;28;20460;-63
2022/08/03 04:42:28;;;;;;;6.70;3.60;;;16.20;99.90;;;;;;5093984;28;20180;-63
2022/08/03 04:44:55;;;;;;;3.67;2.30;;;16.30;99.90;;;;;;5094569;28;20422;-63
2022/08/03 04:47:21;;;;;;;3.17;2.07;;;16.30;99.90;;;;;;5093967;28;20418;-63
2022/08/03 04:49:47;;;;;;;3.90;2.40;;;16.30;99.90;;;;;;5076208;28;20433;-64
2022/08/03 04:52:13;;;;;;;4.30;2.37;;;16.30;99.90;;;;;;5093750;28;20777;-63
2022/08/03 04:54:43;;;;;;;5.13;2.93;;;16.40;99.90;;;;;;5093869;28;20434;-63
2022/08/03 04:57:12;;;;;;;4.53;2.20;;;16.40;99.90;;;;;;5093732;28;20263;-63
2022/08/03 04:59:38;;;;;;;5.17;2.50;;;16.40;99.90;;;;;;5094084;28;20462;-63
2022/08/03 05:02:03;;;;;;;4.67;2.70;;;16.50;99.90;;;;;;5073380;28;20917;-63
2022/08/03 05:04:29;;;;;;;4.67;2.17;;;16.60;99.90;;;;;;5093871;28;20426;-63
2022/08/03 05:06:55;;;;;;;8.00;2.60;;;16.60;99.90;;;;;;5093888;28;20192;-63
2022/08/03 05:09:20;;;;;;;5.07;2.50;;;16.70;99.90;;;;;;5093563;28;20211;-63
2022/08/03 05:11:46;;;;;;;5.23;2.73;;;16.70;99.90;;;;;;5093231;28;20180;-63
2022/08/03 05:14:11;;;;;;;6.27;3.33;;;16.80;99.90;;;;;;5093934;28;20177;-63
2022/08/03 05:16:37;;;;;;;5.20;2.40;;;16.80;99.90;;;;;;5093055;28;20745;-63
2022/08/03 05:19:03;;;;;;;5.70;2.73;;;16.80;99.90;;;;;;5093605;28;20191;-63
2022/08/03 05:21:28;;;;;;;5.10;2.87;;;16.90;99.90;;;;;;5092884;28;20183;-63
2022/08/03 05:23:54;;;;;;;5.30;2.67;;;17.00;99.90;;;;;;5092794;28;20179;-63
2022/08/03 05:26:19;;;;;;;4.73;2.43;;;17.00;99.90;;;;;;5093348;28;20180;-64
2022/08/03 05:28:45;;;;;;;4.07;2.63;;;17.10;99.90;;;;;;5093293;28;20188;-64
2022/08/03 05:31:12;;;;;;;4.10;2.30;;;17.20;99.90;;;;;;5092552;28;20184;-64
2022/08/03 05:33:38;;;;;;;13.90;2.57;;;17.20;99.90;;;;;;5093403;28;20188;-64
2022/08/03 05:36:04;;;;;;;5.07;2.60;;;17.30;99.90;;;;;;5093141;28;20419;-64
2022/08/03 05:38:31;;;;;;;7.83;3.20;;;17.40;99.90;;;;;;5085479;28;20477;-64
2022/08/03 05:40:57;;;;;;;4.03;2.37;;;17.40;99.90;;;;;;5085157;28;20868;-64
2022/08/03 05:43:23;;;;;;;6.87;2.80;;;17.50;99.90;;;;;;5093049;28;20501;-64
2022/08/03 05:45:48;;;;;;;4.60;3.10;;;17.60;99.90;;;;;;5092718;28;20204;-65
2022/08/03 05:48:14;;;;;;;7.17;3.27;;;17.80;99.90;;;;;;5093338;28;20206;-64
2022/08/03 05:50:40;;;;;;;6.30;3.70;;;17.80;99.90;;;;;;5092956;28;20180;-64
2022/08/03 05:53:05;;;;;;;5.53;3.40;;;17.90;99.90;;;;;;5092773;28;20249;-64
2022/08/03 05:55:31;;;;;;;8.47;3.40;;;18.00;99.90;;;;;;5087783;28;20233;-64
2022/08/03 05:57:56;;;;;;;4.90;3.13;;;18.10;99.90;;;;;;5076145;28;20235;-64
2022/08/03 06:00:23;;;;;;;4.80;2.60;;;18.20;99.90;;;;;;5090534;28;20273;-64
2022/08/03 06:02:48;;;;;;;5.80;3.27;;;18.20;99.90;;;;;;5092484;28;20685;-64
2022/08/03 06:05:14;;;;;;;5.33;2.87;;;18.30;99.90;;;;;;5092654;28;20426;-64
2022/08/03 06:07:39;;;;;;;5.43;2.90;;;18.40;99.90;;;;;;5085534;28;20185;-64
2022/08/03 06:10:06;;;;;;;5.47;3.10;;;18.40;99.90;;;;;;5089952;28;20189;-64
2022/08/03 06:12:34;;;;;;;6.07;3.50;;;18.50;99.90;;;;;;5091109;28;20180;-65
2022/08/03 06:15:02;;;;;;;4.30;2.50;;;18.60;99.90;;;;;;5092505;28;20847;-64
2022/08/03 06:17:28;;;;;;;11.07;3.60;;;18.70;99.90;;;;;;5092118;28;20415;-65
2022/08/03 06:19:53;;;;;;;4.57;2.70;;;18.80;99.90;;;;;;5092593;28;20461;-65
2022/08/03 06:22:19;;;;;;;4.30;2.70;;;19.00;99.90;;;;;;5091246;28;20230;-64
2022/08/03 06:24:45;;;;;;;6.37;3.40;;;19.10;99.90;;;;;;5091721;28;20226;-64
2022/08/03 06:27:11;;;;;;;6.67;2.70;;;19.30;99.90;;;;;;5079893;28;20185;-64
2022/08/03 06:29:37;;;;;;;4.33;2.33;;;19.40;99.90;;;;;;5091952;28;20185;-64
2022/08/03 06:32:02;;;;;;;5.53;2.63;;;19.60;99.90;;;;;;5091475;28;20177;-64
2022/08/03 06:34:28;;;;;;;5.80;2.37;;;19.70;99.90;;;;;;5092473;28;20184;-64
2022/08/03 06:36:54;;;;;;;4.47;2.70;;;19.80;99.90;;;;;;5092464;28;20635;-64
2022/08/03 06:39:20;;;;;;;5.50;2.40;;;20.00;99.90;;;;;;5092253;28;20314;-64
2022/08/03 06:41:46;;;;;;;3.00;1.93;;;20.00;99.90;;;;;;5091622;28;20181;-64
2022/08/03 06:44:12;;;;;;;5.00;2.53;;;20.10;99.90;;;;;;5092426;28;20425;-64
2022/08/03 06:46:37;;;;;;;4.50;2.53;;;20.30;99.90;;;;;;5092440;28;20176;-64
2022/08/03 06:49:03;;;;;;;7.23;2.43;;;20.40;99.90;;;;;;5091924;28;20180;-65
2022/08/03 06:51:29;;;;;;;8.80;2.60;;;20.50;99.90;;;;;;5090757;28;20176;-64
2022/08/03 06:53:55;;;;;;;3.53;2.10;;;20.70;99.90;;;;;;5091108;28;20179;-66
2022/08/03 06:56:21;;;;;;;8.30;3.13;;;20.90;99.90;;;;;;5081551;28;20416;-65
2022/08/03 06:58:47;;;;;;;9.00;3.40;;;21.00;99.90;;;;;;5091652;28;20180;-65
2022/08/03 07:01:13;;;;;;;3.20;2.20;;;21.20;99.90;;;;;;5090384;28;20223;-65
2022/08/03 07:03:39;;;;;;;2.73;1.90;;;21.40;99.90;;;;;;5090695;28;20914;-65
2022/08/03 07:06:05;;;;;;;6.00;2.60;;;21.70;99.90;;;;;;5090034;28;20527;-65
2022/08/03 07:08:31;;;;;;;5.50;2.70;;;22.00;99.90;;;;;;5090426;28;20430;-65
2022/08/03 07:10:56;;;;;;;3.70;2.20;;;22.30;99.90;;;;;;5090584;28;20187;-65
2022/08/03 07:13:22;;;;;;;4.20;2.27;;;22.60;99.90;;;;;;5090533;28;20188;-65
2022/08/03 07:15:48;;;;;;;9.97;2.17;;;23.00;99.90;;;;;;5090199;28;20216;-65
2022/08/03 07:18:14;;;;;;;3.40;1.60;;;23.30;99.90;;;;;;5091349;28;20215;-67
2022/08/03 07:20:39;;;;;;;4.73;2.30;;;23.70;99.90;;;;;;5090833;28;20208;-67
2022/08/03 07:23:05;;;;;;;3.77;1.50;;;23.90;99.70;;;;;;5089458;28;20586;-67
2022/08/03 07:25:31;;;;;;;2.30;1.30;;;24.20;99.20;;;;;;5079323;28;20191;-68
2022/08/03 07:27:56;;;;;;;3.00;1.77;;;24.60;98.70;;;;;;5089258;28;20473;-67
2022/08/03 07:30:22;;;;;;;2.43;1.17;;;24.90;99.70;;;;;;5090631;28;20175;-67
2022/08/03 07:32:48;;;;;;;5.03;1.50;;;25.40;97.30;;;;;;5089992;28;20188;-67
2022/08/03 07:35:13;;;;;;;3.73;1.60;;;25.70;96.70;;;;;;5091232;28;20184;-67
2022/08/03 07:37:39;;;;;;;1.90;0.93;;;26.00;95.50;;;;;;5091036;28;20247;-68
2022/08/03 07:40:05;;;;;;;4.17;1.00;;;26.30;92.70;;;;;;5090740;28;20620;-68
2022/08/03 07:42:31;;;;;;;1.80;0.88;;;27.10;91.90;;;;;;5089864;28;20191;-68
2022/08/03 07:44:58;;;;;;;1.80;0.90;;;28.20;90.00;;;;;;5091267;28;20184;-68
2022/08/03 07:47:27;;;;;;;2.25;0.90;;;29.40;86.80;;;;;;5090632;28;20176;-68
2022/08/03 07:49:53;;;;;;;2.17;1.20;;;30.30;81.40;;;;;;5091199;28;20211;-68
2022/08/03 07:55:22;;;;;;;2.20;1.20;;;31.40;77.50;;;;;;5015273;28;20591;-69
2022/08/03 07:58:02;;;;;;;2.75;0.80;;;32.10;73.60;;;;;;5079185;28;20194;-69
2022/08/03 08:00:28;;;;;;;2.80;1.27;;;33.70;67.60;;;;;;5091486;28;20191;-69
2022/08/03 08:02:54;;;;;;;2.90;1.52;;;33.20;67.80;;;;;;5092290;28;20582;-68
2022/08/03 08:05:19;;;;;;;2.28;1.20;;;33.30;67.00;;;;;;5095029;28;20205;-68
2022/08/03 08:07:45;;;;;;;2.30;1.17;;;32.90;68.90;;;;;;5101779;28;20187;-68
2022/08/03 08:10:11;;;;;;;1.60;0.70;;;33.10;68.80;;;;;;5109511;28;20188;-68
2022/08/03 08:12:38;;;;;;;2.20;1.23;;;33.30;68.20;;;;;;5108800;28;20168;-68
2022/08/03 08:15:04;;;;;;;2.78;1.35;;;33.90;66.40;;;;;;5117345;28;20176;-69
2022/08/03 08:17:29;;;;;;;2.20;1.00;;;33.90;64.50;;;;;;5112708;28;20187;-69
2022/08/03 08:19:55;;;;;;;2.28;1.00;;;33.40;68.00;;;;;;5093280;28;20286;-69
2022/08/03 08:22:21;;;;;;;1.95;0.98;;;33.20;66.90;;;;;;5091546;28;20249;-69
2022/08/03 08:24:47;;;;;;;2.00;1.00;;;33.60;66.30;;;;;;5090707;28;20598;-69
2022/08/03 08:27:14;;;;;;;13.90;1.20;;;33.20;66.60;;;;;;5090414;28;20245;-69
2022/08/03 08:29:39;;;;;;;2.50;1.30;;;33.20;65.90;;;;;;5090342;28;20193;-69
2022/08/03 08:32:05;;;;;;;2.58;1.00;;;32.70;65.40;;;;;;5089371;28;20192;-69
2022/08/03 08:34:31;;;;;;;2.20;0.82;;;32.50;67.50;;;;;;5090300;28;20215;-70
2022/08/03 08:36:57;;;;;;;1.90;1.00;;;32.70;65.80;;;;;;5093172;28;20191;-68
2022/08/03 08:39:23;;;;;;;2.22;1.17;;;33.00;66.00;;;;;;5093676;28;20299;-68
2022/08/03 08:41:51;;;;;;;3.05;1.05;;;33.30;64.50;;;;;;5092944;28;20262;-68
2022/08/03 08:44:17;;;;;;;1.80;0.80;;;33.40;62.70;;;;;;5075190;28;20179;-67
2022/08/03 08:46:43;;;;;;;4.88;1.73;;;32.90;64.40;;;;;;5093362;28;20172;-67
2022/08/03 08:49:10;;;;;;;3.17;1.20;;;32.60;65.30;;;;;;5093764;28;20531;-68
2022/08/03 08:51:39;;;;;;;2.30;1.10;;;32.50;65.90;;;;;;5089974;28;20180;-67
2022/08/03 08:54:06;;;;;;;1.85;0.95;;;32.20;64.90;;;;;;5079676;28;20180;-67
2022/08/03 08:56:33;;;;;;;2.60;1.15;;;32.50;67.70;;;;;;5084070;28;20191;-70
2022/08/03 08:59:00;;;;;;;3.80;1.33;;;33.10;65.80;;;;;;5093618;28;20665;-69
2022/08/03 09:01:26;;;;;;;2.67;1.23;;;33.10;65.00;;;;;;5092575;28;20195;-68
2022/08/03 09:03:53;;;;;;;2.80;1.50;;;32.90;64.60;;;;;;5079847;28;20274;-68
2022/08/03 09:06:19;;;;;;;3.78;1.40;;;32.70;64.10;;;;;;5093321;28;20215;-67
2022/08/03 09:08:45;;;;;;;2.83;1.08;;;32.90;63.30;;;;;;5093287;28;20180;-68
2022/08/03 09:11:11;;;;;;;2.50;1.15;;;32.90;64.20;;;;;;5087384;28;20198;-68
2022/08/03 09:13:37;;;;;;;3.75;1.23;;;32.80;63.60;;;;;;5093003;28;20658;-68
2022/08/03 09:16:11;;;;;;;2.75;1.42;;;32.70;63.20;;;;;;5092564;28;20691;-68
2022/08/03 09:18:38;;;;;;;1.77;0.98;;;32.70;64.10;;;;;;5093660;28;20534;-68
2022/08/03 09:21:27;;;;;;;17.10;1.38;;;32.70;64.40;;;;;;5092848;28;20199;-68
2022/08/03 09:23:55;;;;;;;3.22;1.20;;;32.10;63.00;;;;;;5092633;28;20180;-70
2022/08/03 09:26:23;;;;;;;2.15;1.00;;;31.70;63.60;;;;;;5092952;28;20179;-70
2022/08/03 09:29:02;;;;;;;2.13;1.10;;;32.30;64.60;;;;;;5093194;28;20199;-70
2022/08/03 09:31:37;;;;;;;2.55;1.15;;;32.60;62.50;;;;;;5092060;28;20236;-71
2022/08/03 09:34:07;;;;;;;2.03;0.82;;;32.90;63.50;;;;;;5092837;28;20232;-68
2022/08/03 09:36:38;;;;;;;2.60;1.27;;;32.80;62.10;;;;;;5092874;28;20678;-68
2022/08/03 09:39:12;;;;;;;2.38;1.10;;;33.10;61.40;;;;;;5093006;28;20569;-68
2022/08/03 09:41:39;;;;;;;2.05;0.88;;;32.60;63.00;;;;;;5092082;28;20197;-69
2022/08/03 09:44:05;;;;;;;2.17;0.88;;;32.70;64.80;;;;;;5092607;28;20241;-69
2022/08/03 09:46:32;;;;;;;2.85;1.15;;;32.30;59.60;;;;;;5091896;28;20237;-68
2022/08/03 09:49:18;;;;;;;3.20;1.45;;;32.60;62.60;;;;;;5092212;28;20756;-69
2022/08/03 09:51:45;;;;;;;2.28;1.27;;;32.30;64.20;;;;;;5091342;28;20203;-69
2022/08/03 09:54:11;;;;;;;3.45;1.05;;;31.80;62.30;;;;;;5092650;28;20635;-68
2022/08/03 09:56:45;;;;;;;1.98;1.05;;;31.60;63.10;;;;;;5091075;28;20191;-68
2022/08/03 09:59:21;;;;;;;2.35;1.00;;;31.70;61.60;;;;;;5092560;28;20288;-69
2022/08/03 10:01:47;;;;;;;3.22;1.10;;;31.90;60.80;;;;;;5091232;28;20241;-69
2022/08/03 10:04:15;;;;;;;3.40;1.45;;;32.20;62.90;;;;;;5092194;28;20184;-69
2022/08/03 10:06:43;;;;;;;3.08;0.85;;;32.10;62.00;;;;;;5092178;28;20175;-70
2022/08/03 10:09:15;;;;;;;2.40;1.30;;;32.20;59.80;;;;;;5092307;28;20524;-70
2022/08/03 10:11:43;;;;;;;4.05;0.95;;;32.00;60.70;;;;;;5091514;28;20203;-69
2022/08/03 10:14:17;;;;;;;2.58;1.30;;;32.20;61.20;;;;;;5092615;28;20180;-69
2022/08/03 10:16:44;;;;;;;1.90;0.90;;;32.40;62.80;;;;;;5091388;28;20175;-69
2022/08/03 10:19:09;;;;;;;2.00;1.05;;;32.20;62.30;;;;;;5092381;28;20187;-69
2022/08/03 10:21:37;;;;;;;2.13;1.08;;;31.80;60.70;;;;;;5091418;28;20219;-69
2022/08/03 10:24:05;;;;;;;2.15;1.13;;;31.70;61.30;;;;;;5090837;28;20176;-68
2022/08/03 10:26:37;;;;;;;2.17;1.17;;;31.80;61.10;;;;;;5091782;28;20285;-69
2022/08/03 10:29:10;;;;;;;2.95;1.38;;;31.60;64.20;;;;;;5092117;28;20172;-69
2022/08/03 10:31:43;;;;;;;2.90;1.45;;;31.40;63.00;;;;;;5091069;28;20252;-69
2022/08/03 10:34:17;;;;;;;2.55;0.93;;;31.30;65.00;;;;;;5092047;28;20175;-69
2022/08/03 10:36:46;;;;;;;2.75;1.38;;;31.10;62.70;;;;;;5091844;28;20541;-69
2022/08/03 10:39:13;;;;;;;2.03;0.95;;;30.90;62.60;;;;;;5091678;28;20206;-68
2022/08/03 10:41:41;;;;;;;2.53;1.23;;;30.90;63.10;;;;;;5090883;28;20207;-69
2022/08/03 10:44:23;;;;;;;2.90;1.05;;;31.10;64.40;;;;;;5077810;28;20754;-69
2022/08/03 10:46:50;;;;;;;3.67;1.00;;;31.00;63.80;;;;;;5091320;28;20168;-69
2022/08/03 10:49:20;;;;;;;2.03;1.00;;;30.90;61.70;;;;;;5091423;28;20195;-68
2022/08/03 10:51:47;;;;;;;2.47;1.20;;;31.00;67.30;;;;;;5090508;28;20195;-69
2022/08/03 10:57:46;;;;;;;2.88;1.10;;;31.10;65.30;;;;;;5082398;28;20741;-69
2022/08/03 11:00:17;;;;;;;2.60;1.23;;;31.10;64.40;;;;;;5083365;28;20213;-69
2022/08/03 11:03:06;;;;;;;2.50;1.30;;;31.20;62.70;;;;;;5080769;28;20183;-69
2022/08/03 11:05:34;;;;;;;2.92;1.40;;;31.00;61.90;;;;;;5091297;28;20172;-68
2022/08/03 11:08:18;;;;;;;2.50;1.33;;;31.30;60.70;;;;;;5091580;28;20179;-69
2022/08/03 11:10:44;;;;;;;1.77;0.95;;;31.40;66.50;;;;;;5090796;28;20255;-68
2022/08/03 11:13:13;;;;;;;2.53;1.10;;;31.40;67.80;;;;;;5071534;28;20368;-68
2022/08/03 11:15:39;;;;;;;2.60;1.30;;;31.30;63.10;;;;;;5082966;28;20176;-67
2022/08/03 11:18:12;;;;;;;2.70;1.45;;;31.40;61.00;;;;;;5087527;28;20284;-68
2022/08/03 11:20:48;;;;;;;2.00;0.93;;;31.40;63.20;;;;;;5090740;28;20249;-67
2022/08/03 11:23:15;;;;;;;3.17;1.52;;;31.10;64.90;;;;;;5089218;28;20698;-68
2022/08/03 11:26:09;;;;;;;2.78;1.13;;;31.10;62.30;;;;;;5085184;28;20208;-70
2022/08/03 11:28:35;;;;;;;2.70;1.48;;;31.30;63.30;;;;;;5080043;28;20176;-69
2022/08/03 11:31:24;;;;;;;2.72;1.25;;;31.50;66.20;;;;;;5089633;28;20196;-70
2022/08/03 11:34:09;;;;;;;2.20;1.30;;;31.70;61.90;;;;;;5082262;28;20577;-69
2022/08/03 11:37:14;;;;;;;4.00;1.30;;;31.70;64.60;;;;;;5090996;28;20182;-70
2022/08/03 11:39:42;;;;;;;2.78;1.17;;;31.80;64.10;;;;;;5065709;28;20234;-69
2022/08/03 11:42:23;;;;;;;3.22;1.38;;;31.80;63.60;;;;;;5089563;28;20173;-69
2022/08/03 11:44:49;;;;;;;2.00;1.02;;;31.80;64.70;;;;;;5086254;28;20255;-69
2022/08/03 11:47:16;;;;;;;2.80;1.20;;;31.70;62.50;;;;;;5090266;28;20171;-69
2022/08/03 11:49:50;;;;;;;2.42;1.00;;;32.10;60.50;;;;;;5090336;28;20188;-70
2022/08/03 11:52:16;;;;;;;3.28;1.30;;;31.90;59.80;;;;;;5089331;28;20632;-69
2022/08/03 11:54:43;;;;;;;3.30;1.20;;;31.80;60.40;;;;;;5089556;28;20545;-69
2022/08/03 11:57:09;;;;;;;2.20;1.10;;;31.80;60.60;;;;;;5079499;28;20257;-70
2022/08/03 11:59:36;;;;;;;2.55;1.02;;;31.90;60.80;;;;;;5088705;28;20266;-69
2022/08/03 12:02:15;;;;;;;2.70;1.52;;;32.10;59.40;;;;;;5087716;28;20215;-69
2022/08/03 12:04:50;;;;;;;3.33;1.40;;;32.20;59.30;;;;;;5089339;28;20293;-70
2022/08/03 12:07:17;;;;;;;2.42;1.13;;;32.20;59.40;;;;;;5089592;28;20582;-70
2022/08/03 12:10:03;;;;;;;4.35;1.27;;;32.00;58.70;;;;;;5089023;28;20202;-70
2022/08/03 12:12:29;;;;;;;3.17;1.15;;;32.00;59.00;;;;;;5078052;28;20198;-68
2022/08/03 12:14:54;;;;;;;3.40;1.42;;;32.20;58.20;;;;;;5093742;28;20581;-69
2022/08/03 12:17:20;;;;;;;2.53;1.33;;;32.40;58.40;;;;;;5076010;28;20194;-70
2022/08/03 12:19:46;;;;;;;3.30;1.02;;;32.40;58.60;;;;;;5094267;28;20599;-69
2022/08/03 12:22:12;;;;;;;3.13;1.45;;;32.40;58.20;;;;;;5093951;28;20176;-70
2022/08/03 12:24:42;;;;;;;3.33;1.33;;;32.50;58.30;;;;;;5093303;28;20172;-70
2022/08/03 12:27:08;;;;;;;3.80;1.58;;;32.50;56.70;;;;;;5094201;28;20263;-70
2022/08/03 12:29:33;;;;;;;1.77;0.93;;;32.60;58.00;;;;;;5094229;28;20593;-70
2022/08/03 12:31:59;;;;;;;2.38;0.90;;;32.70;56.70;;;;;;5093245;28;20670;-70
2022/08/03 12:34:48;;;;;;;3.97;1.50;;;32.90;55.20;;;;;;5094169;28;20178;-70
2022/08/03 12:37:18;;;;;;;7.43;1.52;;;32.70;55.40;;;;;;5093934;28;20229;-69
2022/08/03 12:39:49;;;;;;;2.33;1.20;;;32.80;56.10;;;;;;5094054;28;20321;-70
2022/08/03 12:42:15;;;;;;;2.17;1.02;;;32.80;56.20;;;;;;5093059;28;20248;-71
2022/08/03 12:44:41;;;;;;;2.38;1.02;;;32.80;58.10;;;;;;5094323;28;20639;-70
2022/08/03 12:47:09;;;;;;;2.70;1.25;;;33.00;57.20;;;;;;5093695;28;20191;-70
2022/08/03 12:50:04;;;;;;;3.97;1.38;;;32.90;57.80;;;;;;5093282;28;20263;-70
2022/08/03 12:52:42;;;;;;;3.58;1.40;;;32.90;58.70;;;;;;5066233;28;20187;-70
2022/08/03 12:55:17;;;;;;;5.30;1.35;;;33.00;56.80;;;;;;5091649;28;20749;-70
2022/08/03 12:57:43;;;;;;;2.90;1.33;;;33.00;57.50;;;;;;5086852;28;20184;-70
2022/08/03 13:00:14;;;;;;;2.63;1.33;;;32.90;57.40;;;;;;5093485;28;20825;-70
2022/08/03 13:02:40;;;;;;;2.53;1.20;;;32.70;58.90;;;;;;5093013;28;20598;-70
2022/08/03 13:05:24;;;;;;;9.63;1.20;;;32.50;57.70;;;;;;5093127;28;20221;-70
2022/08/03 13:07:49;;;;;;;4.68;1.35;;;32.70;55.80;;;;;;5093668;28;20207;-70